Alton, TX

5:02 PM CDT on September 01, 2014 (GMT -0500)
Valley International | Change Station
CLOSE
Current Station
Airport
Location: Harlingen,
Elevation: 36 ft
Nearby Weather Stations

Elev 36 ft 26.23 °N, 97.65 °W | Updated 10 minutes ago

Clear
Clear
95 °F
Feels Like 105 °F
N
14
Wind Variable Wind from ESE
Gusts 23 mph

Today
High -- | Low -- °F
--% Chance of Precip.
Yesterday
High -- | Low -- °F
Precip. -- in
7:13 AM 7:52 PM
Waxing Crescent, 44% visible
Pressure 29.83 in
Visibility 10.0 miles
Clouds Clear
Heat Index 105 °F
Dew Point 74 °F
Humidity 50%
Rainfall 0.00 in
Snow Depth Not available.
UV 5 out of 12
Pollen 9.30 out of 12
Ozone Good
PM2.5 Good
Flu Activity Not available.
METAR KHRL 012152Z 12012G20KT 10SM CLR 35/23 A2983 RMK AO2 SLP099 T03500233 $

More Conditions Fewer Conditions

Pressure 29.83 in
Visibility 10.0 miles
Clouds Clear
Heat Index 105 °F
Dew Point 74 °F
Humidity 50%
Rainfall 0.00 in
Snow Depth Not available.
UV 5 out of 12
Pollen 9.30 out of 12
Ozone Good
PM2.5 Good
Flu Activity Not available.
METAR KHRL 012152Z 12012G20KT 10SM CLR 35/23 A2983 RMK AO2 SLP099 T03500233 $

More Conditions Fewer Conditions

Nowcast | as of 3:01 PM CDT on September 1, 2014

Through 5 PM...isolated showers associated with the afternoon sea breeze will continue to develop and move inland across parts of the coastal and mid counties of deep south Texas. Light to moderate rainfall can be expected.

×

10-Day Weather Forecast

Almanac

Astronomy

Sep. 01, 2014 Rise Set
Actual Time 7:13 AM CDT 7:52 PM CDT
Civil Twilight 6:49 AM CDT 8:16 PM CDT
Nautical Twilight 6:22 AM CDT 8:43 PM CDT
Astronomical Twilight 5:54 AM CDT 9:11 PM CDT
Moon 1:22 PM CDT No Moon Set
Length of Visible Light 13h 26m
Length of Day
12h 39m
Tomorrow will be 1m 28s shorter.
Waxing Crescent, 44% of the Moon is Illuminated
Today
Waxing Crescent
Sep 2
First Quarter
Sep 8
Full
Sep 15
Last Quarter
Sep 24
New

Today's Extremes

State Highs State Lows

Community

WunderPhotos

Upload Photos

1,749,419 photos uploaded!

Nearby

Air Quality

  Air Quality AQ Index Pollutant
Yesterday Good
PM2.5
Yesterday Good
OZONE
Current Good
PM2.5
Current Good
OZONE
Monday Good
PM10
Monday Good
OZONE
Tuesday Good
PM10
Tuesday Good
OZONE
Wednesday Good
PM10
Wednesday Good
OZONE
Thursday Good
PM10
Thursday Good
OZONE

Snow Depth

Station Depth Elevation
No new snow has been reported.

Earthquake Activity

City Distance Mag. Time & Date
No recent earthquake activity has been reported nearby.
Minimum magnitude displayed is 2.5.

Coastal Water Temperatures

Place Temperature
No Stations Reporting

Nearby Weather Stations